createdAt,value
2023-05-01T00:04:39.289Z,3.30
2023-05-01T00:09:44.650Z,3.20
2023-05-01T00:14:49.785Z,3.10
2023-05-01T00:19:55.759Z,3.10
2023-05-01T00:25:01.659Z,3.00
2023-05-01T00:30:07.598Z,2.90
2023-05-01T00:35:13.751Z,2.80
2023-05-01T00:40:19.045Z,2.80
2023-05-01T00:45:24.167Z,2.70
2023-05-01T00:50:30.134Z,2.70
2023-05-01T00:55:36.024Z,2.80
2023-05-01T01:00:41.602Z,2.80
2023-05-01T01:06:08.093Z,2.80
2023-05-01T01:11:21.984Z,2.70
2023-05-01T01:16:49.373Z,2.60
2023-05-01T01:21:57.584Z,2.30
2023-05-01T01:27:31.422Z,2.20
2023-05-01T01:32:54.810Z,2.20
2023-05-01T01:38:05.929Z,2.10
2023-05-01T01:43:14.005Z,1.90
2023-05-01T01:48:22.439Z,1.90
2023-05-01T01:53:30.472Z,1.90
2023-05-01T01:58:37.801Z,1.80
2023-05-01T02:03:45.070Z,1.70
2023-05-01T02:08:51.178Z,1.80
2023-05-01T02:13:58.512Z,1.70
2023-05-01T02:19:06.320Z,1.70
2023-05-01T02:24:13.731Z,1.60
2023-05-01T02:29:19.125Z,1.50
2023-05-01T02:34:24.187Z,1.40
2023-05-01T02:39:29.329Z,1.30
2023-05-01T02:44:43.203Z,1.30
2023-05-01T02:49:49.704Z,1.30
2023-05-01T02:54:56.052Z,1.20
2023-05-01T03:00:01.395Z,1.10
2023-05-01T03:05:07.039Z,1.00
2023-05-01T03:10:12.902Z,1.10
2023-05-01T03:15:18.688Z,1.10
2023-05-01T03:20:25.841Z,1.10
2023-05-01T03:25:31.220Z,1.10
2023-05-01T03:30:37.166Z,1.10
2023-05-01T03:35:42.255Z,1.00
2023-05-01T03:40:47.959Z,0.90
2023-05-01T03:45:54.391Z,0.90
2023-05-01T03:50:59.586Z,0.90
2023-05-01T03:56:05.006Z,0.80
2023-05-01T04:01:10.243Z,0.90
2023-05-01T04:06:17.171Z,1.00
2023-05-01T04:11:22.473Z,1.00
2023-05-01T04:16:27.851Z,1.10
2023-05-01T04:21:33.118Z,1.20
2023-05-01T04:26:39.142Z,1.40
2023-05-01T04:31:45.333Z,1.60
2023-05-01T04:36:51.996Z,1.70
2023-05-01T04:41:57.141Z,1.90
2023-05-01T04:47:06.553Z,2.00
2023-05-01T04:52:12.794Z,2.20
2023-05-01T04:57:17.980Z,2.40
2023-05-01T05:02:23.298Z,2.40
2023-05-01T05:07:28.680Z,2.70
2023-05-01T05:12:33.934Z,2.90
2023-05-01T05:17:39.067Z,3.50
2023-05-01T05:22:44.275Z,4.00
2023-05-01T05:27:49.365Z,4.50
2023-05-01T05:32:55.164Z,5.00
2023-05-01T05:38:00.469Z,5.70
2023-05-01T05:43:05.993Z,6.40
2023-05-01T05:48:12.867Z,7.00
2023-05-01T05:53:18.489Z,7.50
2023-05-01T05:58:25.014Z,7.70
2023-05-01T06:03:30.418Z,8.00
2023-05-01T06:08:38.168Z,8.30
2023-05-01T06:13:43.321Z,8.50
2023-05-01T06:18:48.497Z,8.90
2023-05-01T06:23:53.925Z,9.00
2023-05-01T06:28:59.142Z,9.20
2023-05-01T06:34:04.964Z,9.90
2023-05-01T06:39:10.183Z,10.40
2023-05-01T06:44:15.454Z,11.10
2023-05-01T06:49:20.683Z,10.60
2023-05-01T06:54:26.677Z,11.20
2023-05-01T06:59:31.841Z,12.40
2023-05-01T07:04:37.061Z,12.70
2023-05-01T07:09:42.929Z,12.60
2023-05-01T07:14:48.054Z,13.60
2023-05-01T07:19:53.356Z,14.30
2023-05-01T07:24:58.471Z,15.10
2023-05-01T07:30:05.337Z,14.60
2023-05-01T07:35:11.048Z,15.30
2023-05-01T07:40:16.269Z,15.20
2023-05-01T07:45:21.588Z,15.70
2023-05-01T07:50:26.958Z,16.10
2023-05-01T07:55:32.217Z,17.10
2023-05-01T08:00:37.642Z,17.30
2023-05-01T08:05:43.567Z,17.20
2023-05-01T08:10:49.512Z,17.10
2023-05-01T08:15:54.692Z,17.40
2023-05-01T08:21:00.031Z,17.50
2023-05-01T08:26:05.676Z,18.70
2023-05-01T08:31:11.019Z,19.30
2023-05-01T08:36:16.403Z,19.50
2023-05-01T08:41:23.965Z,18.00
2023-05-01T08:47:08.382Z,17.60
2023-05-01T08:52:15.088Z,18.40
2023-05-01T08:57:21.758Z,18.70
2023-05-01T09:02:28.980Z,19.50
2023-05-01T09:07:34.298Z,19.50
2023-05-01T09:12:41.491Z,20.30
2023-05-01T09:17:47.237Z,21.60
2023-05-01T09:22:52.609Z,19.50
2023-05-01T09:27:58.378Z,20.30
2023-05-01T09:33:15.062Z,20.80
2023-05-01T09:38:25.716Z,21.20
2023-05-01T09:43:31.970Z,22.40
2023-05-01T09:48:38.192Z,22.70
2023-05-01T09:53:43.337Z,21.80
2023-05-01T09:58:49.610Z,21.40
2023-05-01T10:03:58.057Z,21.50
2023-05-01T10:09:04.773Z,20.40
2023-05-01T10:14:11.560Z,19.90
2023-05-01T10:19:19.049Z,20.20
2023-05-01T10:24:24.275Z,20.90
2023-05-01T10:29:32.850Z,21.50
2023-05-01T10:34:41.005Z,20.90
2023-05-01T10:39:46.904Z,21.00
2023-05-01T10:44:52.143Z,21.00
2023-05-01T10:50:16.255Z,20.30
2023-05-01T10:55:43.022Z,20.60
2023-05-01T11:00:51.153Z,19.90
2023-05-01T11:06:05.487Z,20.00
2023-05-01T11:11:28.911Z,19.40
2023-05-01T11:16:47.035Z,19.30
2023-05-01T11:21:52.699Z,18.90
2023-05-01T11:27:00.246Z,19.90
2023-05-01T11:32:14.939Z,20.00
2023-05-01T11:37:21.374Z,20.20
2023-05-01T11:42:27.094Z,19.80
2023-05-01T11:47:34.393Z,20.10
2023-05-01T11:52:49.745Z,20.20
2023-05-01T11:57:55.248Z,20.60
2023-05-01T12:03:09.427Z,21.10
2023-05-01T12:08:19.638Z,21.00
2023-05-01T12:13:27.229Z,20.10
2023-05-01T12:18:32.537Z,20.60
2023-05-01T12:23:46.921Z,20.80
2023-05-01T12:29:03.589Z,20.80
2023-05-01T12:34:09.222Z,20.80
2023-05-01T12:39:14.678Z,20.60
2023-05-01T12:44:25.777Z,20.50
2023-05-01T12:49:32.840Z,20.90
2023-05-01T12:54:42.126Z,20.20
2023-05-01T12:59:49.824Z,20.20
2023-05-01T13:04:56.508Z,20.50
2023-05-01T13:10:02.348Z,20.20
2023-05-01T13:15:09.026Z,20.10
2023-05-01T13:20:15.616Z,20.60
2023-05-01T13:25:21.788Z,20.60
2023-05-01T13:30:35.161Z,19.80
2023-05-01T13:35:41.072Z,20.20
2023-05-01T13:40:46.256Z,20.50
2023-05-01T13:45:52.530Z,20.20
2023-05-01T13:50:57.640Z,20.50
2023-05-01T13:56:06.261Z,20.60
2023-05-01T14:01:17.508Z,20.00
2023-05-01T14:06:24.463Z,20.10
2023-05-01T14:11:29.841Z,20.10
2023-05-01T14:16:35.188Z,20.20
2023-05-01T14:21:42.927Z,20.30
2023-05-01T14:26:50.430Z,19.80
2023-05-01T14:31:57.046Z,19.50
2023-05-01T14:37:02.572Z,19.20
2023-05-01T14:42:07.694Z,19.30
2023-05-01T14:47:16.784Z,19.60
2023-05-01T14:52:22.573Z,19.30
2023-05-01T14:57:29.123Z,19.10
2023-05-01T15:02:34.686Z,18.90
2023-05-01T15:07:39.969Z,19.00
2023-05-01T15:12:45.724Z,19.10
2023-05-01T15:17:51.138Z,18.90
2023-05-01T15:22:56.373Z,18.60
2023-05-01T15:28:01.606Z,18.50
2023-05-01T15:33:07.482Z,18.30
2023-05-01T15:38:13.419Z,18.30
2023-05-01T15:43:18.606Z,18.30
2023-05-01T15:48:24.104Z,18.40
2023-05-01T15:53:29.243Z,18.30
2023-05-01T15:58:34.483Z,18.40
2023-05-01T16:03:42.813Z,18.30
2023-05-01T16:08:48.577Z,18.00
2023-05-01T16:13:55.365Z,17.70
2023-05-01T16:19:01.443Z,17.40
2023-05-01T16:24:07.204Z,17.20
2023-05-01T16:29:12.637Z,17.10
2023-05-01T16:34:21.021Z,17.00
2023-05-01T16:39:26.894Z,17.00
2023-05-01T16:44:32.386Z,17.00
2023-05-01T16:49:39.114Z,17.00
2023-05-01T16:54:44.323Z,17.00
2023-05-01T16:59:49.389Z,16.90
2023-05-01T17:04:54.539Z,16.90
2023-05-01T17:09:59.902Z,16.80
2023-05-01T17:15:06.416Z,16.70
2023-05-01T17:20:12.397Z,16.60
2023-05-01T17:25:17.658Z,16.40
2023-05-01T17:30:22.917Z,16.30
2023-05-01T17:35:28.220Z,16.10
2023-05-01T17:40:34.044Z,16.00
2023-05-01T17:45:39.801Z,15.80
2023-05-01T17:50:45.083Z,15.70
2023-05-01T17:55:50.252Z,15.60
2023-05-01T18:00:58.275Z,15.40
2023-05-01T18:06:05.004Z,15.20
2023-05-01T18:11:10.128Z,15.10
2023-05-01T18:16:16.903Z,14.80
2023-05-01T18:21:21.981Z,14.60
2023-05-01T18:26:27.718Z,14.30
2023-05-01T18:31:34.214Z,14.10
2023-05-01T18:36:39.476Z,14.00
2023-05-01T18:41:45.107Z,13.80
2023-05-01T18:46:50.433Z,13.60
2023-05-01T18:51:55.836Z,13.40
2023-05-01T18:57:01.726Z,13.30
2023-05-01T19:02:07.374Z,13.10
2023-05-01T19:07:12.500Z,12.90
2023-05-01T19:12:17.694Z,12.70
2023-05-01T19:17:22.915Z,12.70
2023-05-01T19:22:28.154Z,12.50
2023-05-01T19:27:33.215Z,12.40
2023-05-01T19:32:38.564Z,12.20
2023-05-01T19:37:43.710Z,12.10
2023-05-01T19:42:49.103Z,11.90
2023-05-01T19:47:54.356Z,11.90
2023-05-01T19:53:02.657Z,11.80
2023-05-01T19:58:07.747Z,11.70
2023-05-01T20:03:13.237Z,11.70
2023-05-01T20:08:18.513Z,11.50
2023-05-01T20:13:24.231Z,11.50
2023-05-01T20:18:29.520Z,11.50
2023-05-01T20:23:36.009Z,11.40
2023-05-01T20:28:41.202Z,11.40
2023-05-01T20:33:46.748Z,11.30
2023-05-01T20:38:53.344Z,11.20
2023-05-01T20:43:59.368Z,11.20
2023-05-01T20:49:06.049Z,11.10
2023-05-01T20:54:11.373Z,11.00
2023-05-01T20:59:16.693Z,10.90
2023-05-01T21:04:21.906Z,10.70
2023-05-01T21:09:27.526Z,10.60
2023-05-01T21:14:32.587Z,10.50
2023-05-01T21:19:48.485Z,10.40
2023-05-01T21:24:55.998Z,10.30
2023-05-01T21:30:03.289Z,10.20
2023-05-01T21:35:11.064Z,10.20
2023-05-01T21:40:19.342Z,10.10
2023-05-01T21:45:26.633Z,10.10
2023-05-01T21:50:34.759Z,10.10
2023-05-01T21:55:40.549Z,10.00
2023-05-01T22:00:47.294Z,10.00
2023-05-01T22:05:53.302Z,10.00
2023-05-01T22:10:58.476Z,9.90
2023-05-01T22:16:04.257Z,9.70
2023-05-01T22:21:09.546Z,9.60
2023-05-01T22:26:14.700Z,9.50
2023-05-01T22:31:19.941Z,9.50
2023-05-01T22:36:25.092Z,9.40
2023-05-01T22:41:30.330Z,9.40
2023-05-01T22:46:36.020Z,9.40
2023-05-01T22:51:41.235Z,9.50
2023-05-01T22:56:46.468Z,9.50
2023-05-01T23:01:51.685Z,9.50
2023-05-01T23:06:57.444Z,9.50
2023-05-01T23:12:04.382Z,9.50
2023-05-01T23:17:09.451Z,9.50
2023-05-01T23:22:14.621Z,9.50
2023-05-01T23:27:22.063Z,9.50
2023-05-01T23:32:30.563Z,9.50
2023-05-01T23:37:35.792Z,9.50
2023-05-01T23:42:41.477Z,9.50
2023-05-01T23:47:46.947Z,9.50
2023-05-01T23:52:52.607Z,9.60
2023-05-01T23:57:59.181Z,9.60
